sensor_id;sensor_type;location;lat;lon;timestamp;P1;durP1;ratioP1;P2;durP2;ratioP2
71387;SDS011;59201;59.902;10.520;2022-09-11T00:00:19;7.40;;;3.10;;
71387;SDS011;59201;59.902;10.520;2022-09-11T00:02:45;6.90;;;2.90;;
71387;SDS011;59201;59.902;10.520;2022-09-11T00:05:12;7.53;;;3.13;;
71387;SDS011;59201;59.902;10.520;2022-09-11T00:07:38;7.00;;;3.10;;
71387;SDS011;59201;59.902;10.520;2022-09-11T00:10:04;6.45;;;2.80;;
71387;SDS011;59201;59.902;10.520;2022-09-11T00:12:31;6.85;;;3.13;;
71387;SDS011;59201;59.902;10.520;2022-09-11T00:14:57;6.10;;;2.75;;
71387;SDS011;59201;59.902;10.520;2022-09-11T00:17:24;6.80;;;3.30;;
71387;SDS011;59201;59.902;10.520;2022-09-11T00:19:50;6.33;;;2.60;;
71387;SDS011;59201;59.902;10.520;2022-09-11T00:22:16;6.80;;;3.20;;
71387;SDS011;59201;59.902;10.520;2022-09-11T00:24:42;8.48;;;3.53;;
71387;SDS011;59201;59.902;10.520;2022-09-11T00:27:08;9.80;;;3.75;;
71387;SDS011;59201;59.902;10.520;2022-09-11T00:29:34;10.30;;;3.47;;
71387;SDS011;59201;59.902;10.520;2022-09-11T00:32:00;6.90;;;3.20;;
71387;SDS011;59201;59.902;10.520;2022-09-11T00:34:26;6.25;;;2.88;;
71387;SDS011;59201;59.902;10.520;2022-09-11T00:36:52;7.50;;;3.28;;
71387;SDS011;59201;59.902;10.520;2022-09-11T00:39:18;10.02;;;3.38;;
71387;SDS011;59201;59.902;10.520;2022-09-11T00:41:45;8.90;;;3.20;;
71387;SDS011;59201;59.902;10.520;2022-09-11T00:51:48;8.50;;;3.20;;
71387;SDS011;59201;59.902;10.520;2022-09-11T00:54:16;6.82;;;3.30;;
71387;SDS011;59201;59.902;10.520;2022-09-11T00:56:44;7.57;;;3.33;;
71387;SDS011;59201;59.902;10.520;2022-09-11T00:59:12;9.60;;;3.38;;
71387;SDS011;59201;59.902;10.520;2022-09-11T01:01:38;6.85;;;3.25;;
71387;SDS011;59201;59.902;10.520;2022-09-11T01:04:04;7.43;;;3.30;;
71387;SDS011;59201;59.902;10.520;2022-09-11T01:06:31;8.57;;;3.20;;
71387;SDS011;59201;59.902;10.520;2022-09-11T01:08:57;7.07;;;3.23;;
71387;SDS011;59201;59.902;10.520;2022-09-11T01:14:08;8.13;;;3.22;;
71387;SDS011;59201;59.902;10.520;2022-09-11T01:16:41;8.13;;;3.25;;
71387;SDS011;59201;59.902;10.520;2022-09-11T01:31:36;7.72;;;3.50;;
71387;SDS011;59201;59.902;10.520;2022-09-11T01:34:29;8.73;;;3.70;;
71387;SDS011;59201;59.902;10.520;2022-09-11T01:36:56;8.20;;;3.08;;
71387;SDS011;59201;59.902;10.520;2022-09-11T01:39:25;10.50;;;3.70;;
71387;SDS011;59201;59.902;10.520;2022-09-11T01:42:02;7.65;;;3.40;;
71387;SDS011;59201;59.902;10.520;2022-09-11T01:44:34;6.60;;;3.60;;
71387;SDS011;59201;59.902;10.520;2022-09-11T01:47:03;6.93;;;3.50;;
71387;SDS011;59201;59.902;10.520;2022-09-11T01:49:34;9.20;;;3.70;;
71387;SDS011;59201;59.902;10.520;2022-09-11T01:52:05;7.97;;;3.38;;
71387;SDS011;59201;59.902;10.520;2022-09-11T01:54:34;7.55;;;3.17;;
71387;SDS011;59201;59.902;10.520;2022-09-11T01:57:07;7.38;;;3.38;;
71387;SDS011;59201;59.902;10.520;2022-09-11T01:59:36;8.67;;;3.20;;
71387;SDS011;59201;59.902;10.520;2022-09-11T02:02:06;6.93;;;2.90;;
71387;SDS011;59201;59.902;10.520;2022-09-11T02:04:55;6.38;;;2.95;;
71387;SDS011;59201;59.902;10.520;2022-09-11T02:07:23;6.75;;;3.10;;
71387;SDS011;59201;59.902;10.520;2022-09-11T02:09:51;6.78;;;2.67;;
71387;SDS011;59201;59.902;10.520;2022-09-11T02:12:19;9.10;;;3.00;;
71387;SDS011;59201;59.902;10.520;2022-09-11T02:14:48;6.30;;;3.00;;
71387;SDS011;59201;59.902;10.520;2022-09-11T02:19:43;8.63;;;3.17;;
71387;SDS011;59201;59.902;10.520;2022-09-11T02:22:09;7.20;;;2.92;;
71387;SDS011;59201;59.902;10.520;2022-09-11T02:24:35;8.27;;;3.20;;
71387;SDS011;59201;59.902;10.520;2022-09-11T02:27:05;8.02;;;2.90;;
71387;SDS011;59201;59.902;10.520;2022-09-11T02:29:31;7.80;;;3.13;;
71387;SDS011;59201;59.902;10.520;2022-09-11T02:31:58;11.00;;;3.30;;
71387;SDS011;59201;59.902;10.520;2022-09-11T02:34:29;6.68;;;2.90;;
71387;SDS011;59201;59.902;10.520;2022-09-11T02:37:17;7.13;;;3.03;;
71387;SDS011;59201;59.902;10.520;2022-09-11T02:39:54;7.72;;;3.08;;
71387;SDS011;59201;59.902;10.520;2022-09-11T02:53:00;6.93;;;3.28;;
71387;SDS011;59201;59.902;10.520;2022-09-11T02:58:02;7.47;;;2.72;;
71387;SDS011;59201;59.902;10.520;2022-09-11T03:00:29;7.03;;;2.70;;
71387;SDS011;59201;59.902;10.520;2022-09-11T03:02:55;6.37;;;2.67;;
71387;SDS011;59201;59.902;10.520;2022-09-11T03:05:21;7.10;;;2.65;;
71387;SDS011;59201;59.902;10.520;2022-09-11T03:07:47;7.35;;;2.80;;
71387;SDS011;59201;59.902;10.520;2022-09-11T03:10:13;7.63;;;2.60;;
71387;SDS011;59201;59.902;10.520;2022-09-11T03:12:39;5.90;;;2.60;;
71387;SDS011;59201;59.902;10.520;2022-09-11T03:15:06;6.10;;;2.33;;
71387;SDS011;59201;59.902;10.520;2022-09-11T03:17:34;7.82;;;2.60;;
71387;SDS011;59201;59.902;10.520;2022-09-11T03:20:00;9.18;;;2.70;;
71387;SDS011;59201;59.902;10.520;2022-09-11T03:22:26;6.43;;;2.92;;
71387;SDS011;59201;59.902;10.520;2022-09-11T03:24:52;5.72;;;2.55;;
71387;SDS011;59201;59.902;10.520;2022-09-11T03:27:18;7.03;;;2.60;;
71387;SDS011;59201;59.902;10.520;2022-09-11T03:29:45;6.95;;;2.70;;
71387;SDS011;59201;59.902;10.520;2022-09-11T03:32:11;6.40;;;2.55;;
71387;SDS011;59201;59.902;10.520;2022-09-11T03:34:37;8.18;;;2.65;;
71387;SDS011;59201;59.902;10.520;2022-09-11T03:37:03;7.35;;;2.90;;
71387;SDS011;59201;59.902;10.520;2022-09-11T03:39:29;7.93;;;3.10;;
71387;SDS011;59201;59.902;10.520;2022-09-11T03:41:55;6.00;;;2.70;;
71387;SDS011;59201;59.902;10.520;2022-09-11T03:44:22;6.75;;;3.00;;
71387;SDS011;59201;59.902;10.520;2022-09-11T03:46:48;6.65;;;2.97;;
71387;SDS011;59201;59.902;10.520;2022-09-11T03:49:14;6.40;;;2.70;;
71387;SDS011;59201;59.902;10.520;2022-09-11T03:51:40;8.83;;;3.20;;
71387;SDS011;59201;59.902;10.520;2022-09-11T03:54:06;7.28;;;3.03;;
71387;SDS011;59201;59.902;10.520;2022-09-11T03:56:32;6.97;;;2.80;;
71387;SDS011;59201;59.902;10.520;2022-09-11T03:58:58;6.95;;;2.75;;
71387;SDS011;59201;59.902;10.520;2022-09-11T04:01:26;6.68;;;2.90;;
71387;SDS011;59201;59.902;10.520;2022-09-11T04:03:52;7.07;;;2.73;;
71387;SDS011;59201;59.902;10.520;2022-09-11T04:06:18;7.30;;;2.80;;
71387;SDS011;59201;59.902;10.520;2022-09-11T04:08:44;6.70;;;2.55;;
71387;SDS011;59201;59.902;10.520;2022-09-11T04:11:11;8.20;;;3.20;;
71387;SDS011;59201;59.902;10.520;2022-09-11T04:13:38;7.57;;;3.20;;
71387;SDS011;59201;59.902;10.520;2022-09-11T04:16:15;6.13;;;2.57;;
71387;SDS011;59201;59.902;10.520;2022-09-11T04:18:42;6.93;;;2.90;;
71387;SDS011;59201;59.902;10.520;2022-09-11T04:21:11;6.72;;;3.08;;
71387;SDS011;59201;59.902;10.520;2022-09-11T04:23:37;7.68;;;2.80;;
71387;SDS011;59201;59.902;10.520;2022-09-11T04:26:17;6.35;;;2.80;;
71387;SDS011;59201;59.902;10.520;2022-09-11T04:28:43;6.80;;;2.87;;
71387;SDS011;59201;59.902;10.520;2022-09-11T04:31:10;7.80;;;2.90;;
71387;SDS011;59201;59.902;10.520;2022-09-11T04:33:36;6.38;;;2.85;;
71387;SDS011;59201;59.902;10.520;2022-09-11T04:36:04;8.15;;;2.97;;
71387;SDS011;59201;59.902;10.520;2022-09-11T04:38:30;7.85;;;3.00;;
71387;SDS011;59201;59.902;10.520;2022-09-11T04:41:01;11.90;;;3.00;;
71387;SDS011;59201;59.902;10.520;2022-09-11T04:43:30;8.27;;;2.75;;
71387;SDS011;59201;59.902;10.520;2022-09-11T04:46:04;5.97;;;2.72;;
71387;SDS011;59201;59.902;10.520;2022-09-11T04:48:30;7.78;;;2.60;;
71387;SDS011;59201;59.902;10.520;2022-09-11T04:51:06;6.35;;;3.03;;
71387;SDS011;59201;59.902;10.520;2022-09-11T04:53:33;7.83;;;2.90;;
71387;SDS011;59201;59.902;10.520;2022-09-11T04:56:06;8.38;;;3.13;;
71387;SDS011;59201;59.902;10.520;2022-09-11T04:58:32;7.10;;;3.20;;
71387;SDS011;59201;59.902;10.520;2022-09-11T05:00:58;6.43;;;2.60;;
71387;SDS011;59201;59.902;10.520;2022-09-11T05:03:25;10.05;;;3.40;;
71387;SDS011;59201;59.902;10.520;2022-09-11T05:05:51;6.90;;;3.00;;
71387;SDS011;59201;59.902;10.520;2022-09-11T05:08:17;7.30;;;3.10;;
71387;SDS011;59201;59.902;10.520;2022-09-11T05:10:44;7.72;;;3.40;;
71387;SDS011;59201;59.902;10.520;2022-09-11T05:13:11;9.35;;;3.53;;
71387;SDS011;59201;59.902;10.520;2022-09-11T05:15:38;6.82;;;3.10;;
71387;SDS011;59201;59.902;10.520;2022-09-11T05:18:04;8.03;;;3.47;;
71387;SDS011;59201;59.902;10.520;2022-09-11T05:20:30;6.95;;;3.33;;
71387;SDS011;59201;59.902;10.520;2022-09-11T05:22:57;7.28;;;3.33;;
71387;SDS011;59201;59.902;10.520;2022-09-11T05:25:23;8.73;;;3.40;;
71387;SDS011;59201;59.902;10.520;2022-09-11T05:27:49;6.45;;;3.35;;
71387;SDS011;59201;59.902;10.520;2022-09-11T05:30:15;8.27;;;3.30;;
71387;SDS011;59201;59.902;10.520;2022-09-11T05:32:41;10.50;;;2.97;;
71387;SDS011;59201;59.902;10.520;2022-09-11T05:35:07;6.88;;;3.10;;
71387;SDS011;59201;59.902;10.520;2022-09-11T05:37:34;8.77;;;3.00;;
71387;SDS011;59201;59.902;10.520;2022-09-11T05:40:00;7.75;;;3.45;;
71387;SDS011;59201;59.902;10.520;2022-09-11T05:42:27;7.87;;;3.60;;
71387;SDS011;59201;59.902;10.520;2022-09-11T05:44:53;6.88;;;3.10;;
71387;SDS011;59201;59.902;10.520;2022-09-11T05:47:19;7.35;;;2.90;;
71387;SDS011;59201;59.902;10.520;2022-09-11T05:49:45;7.72;;;3.20;;
71387;SDS011;59201;59.902;10.520;2022-09-11T05:52:11;7.93;;;3.05;;
71387;SDS011;59201;59.902;10.520;2022-09-11T05:54:38;6.90;;;2.90;;
71387;SDS011;59201;59.902;10.520;2022-09-11T05:57:04;7.28;;;3.08;;
71387;SDS011;59201;59.902;10.520;2022-09-11T05:59:31;6.97;;;3.03;;
71387;SDS011;59201;59.902;10.520;2022-09-11T06:01:57;7.18;;;3.10;;
71387;SDS011;59201;59.902;10.520;2022-09-11T06:04:23;7.75;;;3.40;;
71387;SDS011;59201;59.902;10.520;2022-09-11T06:06:49;7.83;;;3.03;;
71387;SDS011;59201;59.902;10.520;2022-09-11T06:09:15;7.25;;;3.22;;
71387;SDS011;59201;59.902;10.520;2022-09-11T06:11:41;8.30;;;3.28;;
71387;SDS011;59201;59.902;10.520;2022-09-11T06:14:07;7.57;;;2.97;;
71387;SDS011;59201;59.902;10.520;2022-09-11T06:16:33;8.10;;;3.05;;
71387;SDS011;59201;59.902;10.520;2022-09-11T06:18:59;7.53;;;2.83;;
71387;SDS011;59201;59.902;10.520;2022-09-11T06:21:25;6.47;;;3.08;;
71387;SDS011;59201;59.902;10.520;2022-09-11T06:23:53;6.80;;;3.08;;
71387;SDS011;59201;59.902;10.520;2022-09-11T06:26:20;6.32;;;2.90;;
71387;SDS011;59201;59.902;10.520;2022-09-11T06:28:47;6.78;;;3.03;;
71387;SDS011;59201;59.902;10.520;2022-09-11T06:31:16;7.03;;;2.77;;
71387;SDS011;59201;59.902;10.520;2022-09-11T06:33:43;8.15;;;3.33;;
71387;SDS011;59201;59.902;10.520;2022-09-11T06:36:11;7.63;;;3.60;;
71387;SDS011;59201;59.902;10.520;2022-09-11T06:38:37;6.60;;;2.53;;
71387;SDS011;59201;59.902;10.520;2022-09-11T06:41:04;7.15;;;3.03;;
71387;SDS011;59201;59.902;10.520;2022-09-11T06:43:30;6.90;;;2.80;;
71387;SDS011;59201;59.902;10.520;2022-09-11T06:46:06;7.50;;;3.50;;
71387;SDS011;59201;59.902;10.520;2022-09-11T06:48:34;9.32;;;3.30;;
71387;SDS011;59201;59.902;10.520;2022-09-11T06:51:03;8.13;;;3.60;;
71387;SDS011;59201;59.902;10.520;2022-09-11T06:53:29;7.78;;;3.20;;
71387;SDS011;59201;59.902;10.520;2022-09-11T06:56:02;9.20;;;3.37;;
71387;SDS011;59201;59.902;10.520;2022-09-11T06:58:28;7.75;;;3.08;;
71387;SDS011;59201;59.902;10.520;2022-09-11T07:00:55;6.72;;;2.70;;
71387;SDS011;59201;59.902;10.520;2022-09-11T07:03:23;5.90;;;1.92;;
71387;SDS011;59201;59.902;10.520;2022-09-11T07:05:49;6.63;;;2.30;;
71387;SDS011;59201;59.902;10.520;2022-09-11T07:08:15;5.70;;;2.30;;
71387;SDS011;59201;59.902;10.520;2022-09-11T07:10:41;5.95;;;2.40;;
71387;SDS011;59201;59.902;10.520;2022-09-11T07:13:07;6.80;;;2.88;;
71387;SDS011;59201;59.902;10.520;2022-09-11T07:15:33;8.77;;;3.45;;
71387;SDS011;59201;59.902;10.520;2022-09-11T07:17:59;7.85;;;3.65;;
71387;SDS011;59201;59.902;10.520;2022-09-11T07:20:26;10.23;;;3.73;;
71387;SDS011;59201;59.902;10.520;2022-09-11T07:22:52;7.47;;;3.40;;
71387;SDS011;59201;59.902;10.520;2022-09-11T07:25:18;7.30;;;3.25;;
71387;SDS011;59201;59.902;10.520;2022-09-11T07:27:44;7.18;;;3.25;;
71387;SDS011;59201;59.902;10.520;2022-09-11T07:30:12;6.72;;;3.20;;
71387;SDS011;59201;59.902;10.520;2022-09-11T07:32:38;6.63;;;2.70;;
71387;SDS011;59201;59.902;10.520;2022-09-11T07:35:05;10.25;;;3.00;;
71387;SDS011;59201;59.902;10.520;2022-09-11T07:37:31;6.15;;;2.55;;
71387;SDS011;59201;59.902;10.520;2022-09-11T07:39:57;6.00;;;2.20;;
71387;SDS011;59201;59.902;10.520;2022-09-11T07:42:23;6.05;;;2.78;;
71387;SDS011;59201;59.902;10.520;2022-09-11T07:44:49;9.17;;;2.60;;
71387;SDS011;59201;59.902;10.520;2022-09-11T07:47:15;6.95;;;2.17;;
71387;SDS011;59201;59.902;10.520;2022-09-11T07:49:41;6.53;;;2.50;;
71387;SDS011;59201;59.902;10.520;2022-09-11T07:52:12;6.07;;;2.40;;
71387;SDS011;59201;59.902;10.520;2022-09-11T07:54:38;5.25;;;2.30;;
71387;SDS011;59201;59.902;10.520;2022-09-11T07:57:04;7.23;;;2.27;;
71387;SDS011;59201;59.902;10.520;2022-09-11T07:59:30;6.60;;;2.30;;
71387;SDS011;59201;59.902;10.520;2022-09-11T08:01:56;6.75;;;2.60;;
71387;SDS011;59201;59.902;10.520;2022-09-11T08:04:23;5.90;;;2.85;;
71387;SDS011;59201;59.902;10.520;2022-09-11T08:06:49;5.85;;;2.42;;
71387;SDS011;59201;59.902;10.520;2022-09-11T08:09:15;6.93;;;3.03;;
71387;SDS011;59201;59.902;10.520;2022-09-11T08:11:42;6.45;;;2.67;;
71387;SDS011;59201;59.902;10.520;2022-09-11T08:14:13;5.70;;;2.70;;
71387;SDS011;59201;59.902;10.520;2022-09-11T08:16:39;5.40;;;2.10;;
71387;SDS011;59201;59.902;10.520;2022-09-11T08:19:05;6.88;;;2.28;;
71387;SDS011;59201;59.902;10.520;2022-09-11T08:21:32;6.33;;;2.17;;
71387;SDS011;59201;59.902;10.520;2022-09-11T08:23:59;5.35;;;2.22;;
71387;SDS011;59201;59.902;10.520;2022-09-11T08:26:25;5.70;;;1.83;;
71387;SDS011;59201;59.902;10.520;2022-09-11T08:28:53;5.00;;;1.75;;
71387;SDS011;59201;59.902;10.520;2022-09-11T08:31:19;6.25;;;2.03;;
71387;SDS011;59201;59.902;10.520;2022-09-11T08:33:46;5.40;;;2.20;;
71387;SDS011;59201;59.902;10.520;2022-09-11T08:36:13;5.10;;;1.83;;
71387;SDS011;59201;59.902;10.520;2022-09-11T08:38:39;5.32;;;1.90;;
71387;SDS011;59201;59.902;10.520;2022-09-11T08:43:49;5.28;;;1.80;;
71387;SDS011;59201;59.902;10.520;2022-09-11T08:46:16;4.90;;;1.60;;
71387;SDS011;59201;59.902;10.520;2022-09-11T08:48:55;4.85;;;1.70;;
71387;SDS011;59201;59.902;10.520;2022-09-11T08:51:24;4.63;;;1.60;;
71387;SDS011;59201;59.902;10.520;2022-09-11T08:53:50;4.78;;;1.60;;
71387;SDS011;59201;59.902;10.520;2022-09-11T08:56:19;4.85;;;1.85;;
71387;SDS011;59201;59.902;10.520;2022-09-11T09:04:40;4.50;;;1.42;;
71387;SDS011;59201;59.902;10.520;2022-09-11T09:17:21;4.85;;;1.60;;
71387;SDS011;59201;59.902;10.520;2022-09-11T09:25:03;4.50;;;1.43;;
71387;SDS011;59201;59.902;10.520;2022-09-11T09:27:34;4.40;;;1.52;;
71387;SDS011;59201;59.902;10.520;2022-09-11T09:30:02;4.50;;;1.40;;
71387;SDS011;59201;59.902;10.520;2022-09-11T09:32:31;4.88;;;1.73;;
71387;SDS011;59201;59.902;10.520;2022-09-11T09:35:00;4.60;;;1.40;;
71387;SDS011;59201;59.902;10.520;2022-09-11T09:37:27;5.00;;;1.67;;
71387;SDS011;59201;59.902;10.520;2022-09-11T09:39:53;4.60;;;1.50;;
71387;SDS011;59201;59.902;10.520;2022-09-11T09:42:27;4.93;;;1.60;;
71387;SDS011;59201;59.902;10.520;2022-09-11T09:45:13;4.60;;;1.60;;
71387;SDS011;59201;59.902;10.520;2022-09-11T09:47:43;4.30;;;1.50;;
71387;SDS011;59201;59.902;10.520;2022-09-11T09:50:19;4.70;;;1.50;;
71387;SDS011;59201;59.902;10.520;2022-09-11T09:52:47;4.47;;;1.50;;
71387;SDS011;59201;59.902;10.520;2022-09-11T09:55:15;5.40;;;1.50;;
71387;SDS011;59201;59.902;10.520;2022-09-11T09:57:41;4.53;;;1.50;;
71387;SDS011;59201;59.902;10.520;2022-09-11T10:02:38;4.60;;;1.50;;
71387;SDS011;59201;59.902;10.520;2022-09-11T10:05:15;4.82;;;1.45;;
71387;SDS011;59201;59.902;10.520;2022-09-11T10:07:48;5.05;;;1.40;;
71387;SDS011;59201;59.902;10.520;2022-09-11T10:10:21;4.22;;;1.40;;
71387;SDS011;59201;59.902;10.520;2022-09-11T10:12:48;4.50;;;1.50;;
71387;SDS011;59201;59.902;10.520;2022-09-11T10:15:21;4.67;;;1.30;;
71387;SDS011;59201;59.902;10.520;2022-09-11T10:17:48;4.80;;;1.50;;
71387;SDS011;59201;59.902;10.520;2022-09-11T10:22:43;4.60;;;1.50;;
71387;SDS011;59201;59.902;10.520;2022-09-11T10:25:13;4.70;;;1.50;;
71387;SDS011;59201;59.902;10.520;2022-09-11T10:27:53;4.30;;;1.40;;
71387;SDS011;59201;59.902;10.520;2022-09-11T10:32:50;4.72;;;1.38;;
71387;SDS011;59201;59.902;10.520;2022-09-11T10:35:16;4.68;;;1.50;;
71387;SDS011;59201;59.902;10.520;2022-09-11T10:37:42;4.38;;;1.40;;
71387;SDS011;59201;59.902;10.520;2022-09-11T10:40:29;5.23;;;1.50;;
71387;SDS011;59201;59.902;10.520;2022-09-11T10:42:55;4.70;;;1.40;;
71387;SDS011;59201;59.902;10.520;2022-09-11T10:45:21;6.00;;;1.55;;
71387;SDS011;59201;59.902;10.520;2022-09-11T10:47:47;4.60;;;1.38;;
71387;SDS011;59201;59.902;10.520;2022-09-11T10:55:35;5.40;;;1.90;;
71387;SDS011;59201;59.902;10.520;2022-09-11T10:58:24;5.03;;;1.70;;
71387;SDS011;59201;59.902;10.520;2022-09-11T11:00:48;4.68;;;1.50;;
71387;SDS011;59201;59.902;10.520;2022-09-11T11:03:18;4.93;;;1.50;;
71387;SDS011;59201;59.902;10.520;2022-09-11T11:18:52;4.43;;;1.47;;
71387;SDS011;59201;59.902;10.520;2022-09-11T11:29:26;4.93;;;1.55;;
71387;SDS011;59201;59.902;10.520;2022-09-11T11:32:05;4.20;;;1.50;;
71387;SDS011;59201;59.902;10.520;2022-09-11T11:34:45;4.50;;;1.42;;
71387;SDS011;59201;59.902;10.520;2022-09-11T11:37:23;4.13;;;1.42;;
71387;SDS011;59201;59.902;10.520;2022-09-11T11:44:56;4.80;;;1.37;;
71387;SDS011;59201;59.902;10.520;2022-09-11T11:47:25;4.22;;;1.40;;
71387;SDS011;59201;59.902;10.520;2022-09-11T11:52:33;4.25;;;1.50;;
71387;SDS011;59201;59.902;10.520;2022-09-11T11:55:12;4.45;;;1.50;;
71387;SDS011;59201;59.902;10.520;2022-09-11T11:57:41;4.20;;;1.33;;
71387;SDS011;59201;59.902;10.520;2022-09-11T12:00:12;6.38;;;1.50;;
71387;SDS011;59201;59.902;10.520;2022-09-11T12:02:50;5.45;;;1.40;;
71387;SDS011;59201;59.902;10.520;2022-09-11T12:05:21;4.82;;;1.40;;
71387;SDS011;59201;59.902;10.520;2022-09-11T12:07:48;4.90;;;1.65;;
71387;SDS011;59201;59.902;10.520;2022-09-11T12:12:54;4.95;;;1.60;;
71387;SDS011;59201;59.902;10.520;2022-09-11T12:15:21;4.32;;;1.60;;
71387;SDS011;59201;59.902;10.520;2022-09-11T12:17:56;4.25;;;1.45;;
71387;SDS011;59201;59.902;10.520;2022-09-11T12:22:56;4.50;;;1.60;;
71387;SDS011;59201;59.902;10.520;2022-09-11T12:31:13;5.20;;;1.42;;
71387;SDS011;59201;59.902;10.520;2022-09-11T12:36:30;4.43;;;1.50;;
71387;SDS011;59201;59.902;10.520;2022-09-11T12:39:04;4.60;;;1.50;;
71387;SDS011;59201;59.902;10.520;2022-09-11T12:41:32;4.20;;;1.60;;
71387;SDS011;59201;59.902;10.520;2022-09-11T12:43:59;4.25;;;1.48;;
71387;SDS011;59201;59.902;10.520;2022-09-11T12:49:24;4.80;;;1.70;;
71387;SDS011;59201;59.902;10.520;2022-09-11T12:51:51;4.60;;;1.80;;
71387;SDS011;59201;59.902;10.520;2022-09-11T12:54:28;5.32;;;1.63;;
71387;SDS011;59201;59.902;10.520;2022-09-11T12:57:00;5.35;;;1.70;;
71387;SDS011;59201;59.902;10.520;2022-09-11T12:59:34;4.70;;;1.65;;
71387;SDS011;59201;59.902;10.520;2022-09-11T13:02:02;4.37;;;1.57;;
71387;SDS011;59201;59.902;10.520;2022-09-11T13:04:29;5.63;;;1.70;;
71387;SDS011;59201;59.902;10.520;2022-09-11T13:06:57;5.03;;;1.50;;
71387;SDS011;59201;59.902;10.520;2022-09-11T13:11:53;4.65;;;1.58;;
71387;SDS011;59201;59.902;10.520;2022-09-11T13:19:20;5.15;;;1.60;;
71387;SDS011;59201;59.902;10.520;2022-09-11T13:21:47;5.18;;;1.60;;
71387;SDS011;59201;59.902;10.520;2022-09-11T13:24:32;4.40;;;1.50;;
71387;SDS011;59201;59.902;10.520;2022-09-11T13:29:31;4.35;;;1.52;;
71387;SDS011;59201;59.902;10.520;2022-09-11T13:31:59;4.20;;;1.50;;
71387;SDS011;59201;59.902;10.520;2022-09-11T13:34:32;4.55;;;1.60;;
71387;SDS011;59201;59.902;10.520;2022-09-11T13:37:00;4.47;;;1.60;;
71387;SDS011;59201;59.902;10.520;2022-09-11T13:39:31;4.30;;;1.50;;
71387;SDS011;59201;59.902;10.520;2022-09-11T13:41:59;4.80;;;1.60;;
71387;SDS011;59201;59.902;10.520;2022-09-11T13:46:53;4.93;;;1.60;;
71387;SDS011;59201;59.902;10.520;2022-09-11T13:49:35;4.50;;;1.60;;
71387;SDS011;59201;59.902;10.520;2022-09-11T13:52:06;4.77;;;1.70;;
71387;SDS011;59201;59.902;10.520;2022-09-11T13:54:34;5.55;;;1.80;;
71387;SDS011;59201;59.902;10.520;2022-09-11T14:02:15;4.40;;;1.30;;
71387;SDS011;59201;59.902;10.520;2022-09-11T14:04:43;4.23;;;1.50;;
71387;SDS011;59201;59.902;10.520;2022-09-11T14:07:22;4.50;;;1.50;;
71387;SDS011;59201;59.902;10.520;2022-09-11T14:09:50;4.25;;;1.55;;
71387;SDS011;59201;59.902;10.520;2022-09-11T14:12:16;4.57;;;1.70;;
71387;SDS011;59201;59.902;10.520;2022-09-11T14:14:44;6.03;;;2.00;;
71387;SDS011;59201;59.902;10.520;2022-09-11T14:17:13;5.30;;;1.57;;
71387;SDS011;59201;59.902;10.520;2022-09-11T14:19:41;5.03;;;1.50;;
71387;SDS011;59201;59.902;10.520;2022-09-11T14:22:20;4.75;;;1.80;;
71387;SDS011;59201;59.902;10.520;2022-09-11T14:24:55;4.90;;;1.45;;
71387;SDS011;59201;59.902;10.520;2022-09-11T14:30:00;4.60;;;1.70;;
71387;SDS011;59201;59.902;10.520;2022-09-11T14:34:53;4.65;;;1.70;;
71387;SDS011;59201;59.902;10.520;2022-09-11T14:37:19;4.60;;;1.70;;
71387;SDS011;59201;59.902;10.520;2022-09-11T14:39:50;4.55;;;1.60;;
71387;SDS011;59201;59.902;10.520;2022-09-11T14:42:21;5.27;;;1.47;;
71387;SDS011;59201;59.902;10.520;2022-09-11T14:44:48;4.95;;;1.60;;
71387;SDS011;59201;59.902;10.520;2022-09-11T14:47:15;4.75;;;1.55;;
71387;SDS011;59201;59.902;10.520;2022-09-11T14:49:42;4.60;;;1.60;;
71387;SDS011;59201;59.902;10.520;2022-09-11T14:52:09;4.75;;;1.52;;
71387;SDS011;59201;59.902;10.520;2022-09-11T14:54:37;4.63;;;1.50;;
71387;SDS011;59201;59.902;10.520;2022-09-11T14:57:14;4.80;;;1.63;;
71387;SDS011;59201;59.902;10.520;2022-09-11T14:59:40;4.57;;;1.40;;
71387;SDS011;59201;59.902;10.520;2022-09-11T15:02:13;4.72;;;1.63;;
71387;SDS011;59201;59.902;10.520;2022-09-11T15:04:39;4.78;;;1.60;;
71387;SDS011;59201;59.902;10.520;2022-09-11T15:07:09;4.37;;;1.60;;
71387;SDS011;59201;59.902;10.520;2022-09-11T15:09:36;4.40;;;1.50;;
71387;SDS011;59201;59.902;10.520;2022-09-11T15:12:03;5.68;;;1.73;;
71387;SDS011;59201;59.902;10.520;2022-09-11T15:14:29;4.50;;;1.60;;
71387;SDS011;59201;59.902;10.520;2022-09-11T15:16:56;4.30;;;1.50;;
71387;SDS011;59201;59.902;10.520;2022-09-11T15:19:23;4.40;;;1.50;;
71387;SDS011;59201;59.902;10.520;2022-09-11T15:21:49;4.75;;;1.70;;
71387;SDS011;59201;59.902;10.520;2022-09-11T15:24:15;4.65;;;1.48;;
71387;SDS011;59201;59.902;10.520;2022-09-11T15:26:41;4.35;;;1.42;;
71387;SDS011;59201;59.902;10.520;2022-09-11T15:29:07;4.60;;;1.65;;
71387;SDS011;59201;59.902;10.520;2022-09-11T15:31:37;4.53;;;1.70;;
71387;SDS011;59201;59.902;10.520;2022-09-11T15:34:04;4.35;;;1.20;;
71387;SDS011;59201;59.902;10.520;2022-09-11T15:36:34;4.60;;;1.52;;
71387;SDS011;59201;59.902;10.520;2022-09-11T15:39:05;5.47;;;1.58;;
71387;SDS011;59201;59.902;10.520;2022-09-11T15:41:31;5.70;;;1.80;;
71387;SDS011;59201;59.902;10.520;2022-09-11T15:43:57;4.40;;;1.70;;
71387;SDS011;59201;59.902;10.520;2022-09-11T15:46:24;5.07;;;1.70;;
71387;SDS011;59201;59.902;10.520;2022-09-11T15:48:50;4.57;;;1.60;;
71387;SDS011;59201;59.902;10.520;2022-09-11T15:51:17;5.60;;;1.90;;
71387;SDS011;59201;59.902;10.520;2022-09-11T15:53:44;4.80;;;1.98;;
71387;SDS011;59201;59.902;10.520;2022-09-11T15:56:11;4.80;;;1.80;;
71387;SDS011;59201;59.902;10.520;2022-09-11T15:58:37;7.20;;;1.95;;
71387;SDS011;59201;59.902;10.520;2022-09-11T16:01:04;5.70;;;1.85;;
71387;SDS011;59201;59.902;10.520;2022-09-11T16:03:31;4.80;;;1.80;;
71387;SDS011;59201;59.902;10.520;2022-09-11T16:05:57;6.22;;;1.90;;
71387;SDS011;59201;59.902;10.520;2022-09-11T16:08:25;4.60;;;1.70;;
71387;SDS011;59201;59.902;10.520;2022-09-11T16:10:52;5.93;;;1.75;;
71387;SDS011;59201;59.902;10.520;2022-09-11T16:13:18;5.82;;;1.70;;
71387;SDS011;59201;59.902;10.520;2022-09-11T16:15:45;5.00;;;1.98;;
71387;SDS011;59201;59.902;10.520;2022-09-11T16:18:13;5.82;;;2.10;;
71387;SDS011;59201;59.902;10.520;2022-09-11T16:20:43;5.87;;;1.83;;
71387;SDS011;59201;59.902;10.520;2022-09-11T16:23:10;4.95;;;1.70;;
71387;SDS011;59201;59.902;10.520;2022-09-11T16:25:36;4.82;;;1.92;;
71387;SDS011;59201;59.902;10.520;2022-09-11T16:28:03;5.18;;;1.90;;
71387;SDS011;59201;59.902;10.520;2022-09-11T16:30:30;5.80;;;1.88;;
71387;SDS011;59201;59.902;10.520;2022-09-11T16:32:56;4.47;;;1.60;;
71387;SDS011;59201;59.902;10.520;2022-09-11T16:35:22;4.93;;;1.50;;
71387;SDS011;59201;59.902;10.520;2022-09-11T16:37:49;5.78;;;1.80;;
71387;SDS011;59201;59.902;10.520;2022-09-11T16:40:15;5.85;;;1.60;;
71387;SDS011;59201;59.902;10.520;2022-09-11T16:42:41;4.85;;;1.70;;
71387;SDS011;59201;59.902;10.520;2022-09-11T16:45:07;5.27;;;1.60;;
71387;SDS011;59201;59.902;10.520;2022-09-11T16:47:33;5.00;;;1.42;;
71387;SDS011;59201;59.902;10.520;2022-09-11T16:49:59;4.63;;;1.40;;
71387;SDS011;59201;59.902;10.520;2022-09-11T16:52:26;4.60;;;1.50;;
71387;SDS011;59201;59.902;10.520;2022-09-11T16:54:53;4.95;;;1.63;;
71387;SDS011;59201;59.902;10.520;2022-09-11T16:57:19;5.30;;;1.60;;
71387;SDS011;59201;59.902;10.520;2022-09-11T16:59:45;5.40;;;1.60;;
71387;SDS011;59201;59.902;10.520;2022-09-11T17:02:11;4.78;;;1.42;;